ボードー の空港の天気 - METARとTAF

Bodo Vi ( ENBO / BOO ) - ノルウェー ヌールラン県ボードー
飛行場実況気象(Metar)
観測時間05/23 01:50 CEST (05/22 23:50 UTC)
風向・風速西 5m/s
視程10km以上
天気現象
全天の4割程度の雲 雲底高度 1070m
気温5℃
湿度81%
気圧1027hPa
METARENBO 222350Z 28010KT 9999 SCT035 05/02 Q1027
過去の天気等 Google飛行場航空写真 Wunderground天気予報

過去48時間のMETAR

飛行場予報(TAF)
発表時間: -
TAF ENBO 2300/2324 30008KT 9999 FEW012 BKN030